createdAt,value
2019-05-19T00:02:15.045Z,9.70
2019-05-19T00:04:43.877Z,9.60
2019-05-19T00:07:12.723Z,9.60
2019-05-19T00:09:41.554Z,9.50
2019-05-19T00:12:10.450Z,9.40
2019-05-19T00:14:39.338Z,9.30
2019-05-19T00:17:08.110Z,9.30
2019-05-19T00:19:36.877Z,9.20
2019-05-19T00:22:05.656Z,9.20
2019-05-19T00:24:34.481Z,9.20
2019-05-19T00:27:03.657Z,9.10
2019-05-19T00:29:32.494Z,9.10
2019-05-19T00:32:01.282Z,9.00
2019-05-19T00:34:30.049Z,9.00
2019-05-19T00:36:58.957Z,9.00
2019-05-19T00:39:27.739Z,9.00
2019-05-19T00:41:56.573Z,9.00
2019-05-19T00:44:25.426Z,8.90
2019-05-19T00:46:54.279Z,8.90
2019-05-19T00:49:23.181Z,8.80
2019-05-19T00:51:52.022Z,8.80
2019-05-19T00:54:20.849Z,8.80
2019-05-19T00:56:50.882Z,8.80
2019-05-19T00:59:20.496Z,8.80
2019-05-19T01:01:49.510Z,8.80
2019-05-19T01:04:18.647Z,8.90
2019-05-19T01:06:47.504Z,8.90
2019-05-19T01:09:16.303Z,8.90
2019-05-19T01:11:45.074Z,8.90
2019-05-19T01:14:15.441Z,8.90
2019-05-19T01:16:44.293Z,8.90
2019-05-19T01:19:13.165Z,9.00
2019-05-19T01:21:42.488Z,9.00
2019-05-19T01:24:11.280Z,9.00
2019-05-19T01:26:40.037Z,9.00
2019-05-19T01:29:08.817Z,9.00
2019-05-19T01:31:37.682Z,9.00
2019-05-19T01:34:06.454Z,9.00
2019-05-19T01:36:35.369Z,8.90
2019-05-19T01:39:05.404Z,8.90
2019-05-19T01:41:34.374Z,8.80
2019-05-19T01:44:03.713Z,8.80
2019-05-19T01:46:32.516Z,8.70
2019-05-19T01:49:01.669Z,8.70
2019-05-19T01:51:30.506Z,8.60
2019-05-19T01:53:59.588Z,8.60
2019-05-19T01:56:28.390Z,8.60
2019-05-19T01:58:57.203Z,8.50
2019-05-19T02:01:26.273Z,8.50
2019-05-19T02:03:55.137Z,8.60
2019-05-19T02:06:23.892Z,8.60
2019-05-19T02:08:52.743Z,8.60
2019-05-19T02:11:22.354Z,8.70
2019-05-19T02:13:51.141Z,8.70
2019-05-19T02:16:19.914Z,8.80
2019-05-19T02:18:48.729Z,8.80
2019-05-19T02:21:17.513Z,8.80
2019-05-19T02:23:46.353Z,8.90
2019-05-19T02:26:15.196Z,8.90
2019-05-19T02:28:44.119Z,9.00
2019-05-19T02:31:14.217Z,9.10
2019-05-19T02:33:43.141Z,9.10
2019-05-19T02:36:11.983Z,9.10
2019-05-19T02:38:40.762Z,9.20
2019-05-19T02:41:12.453Z,9.20
2019-05-19T02:43:42.180Z,9.20
2019-05-19T02:46:12.324Z,9.30
2019-05-19T02:48:42.483Z,9.30
2019-05-19T02:51:13.323Z,9.30
2019-05-19T02:53:44.335Z,9.30
2019-05-19T02:56:13.577Z,9.30
2019-05-19T02:58:43.152Z,9.30
2019-05-19T03:01:12.081Z,9.30
2019-05-19T03:03:40.839Z,9.30
2019-05-19T03:06:09.621Z,9.30
2019-05-19T03:08:38.387Z,9.30
2019-05-19T03:11:07.237Z,9.30
2019-05-19T03:13:36.875Z,9.30
2019-05-19T03:16:05.653Z,9.30
2019-05-19T03:18:34.430Z,9.20
2019-05-19T03:21:11.006Z,9.30
2019-05-19T03:23:34.058Z,9.30
2019-05-19T03:26:02.918Z,9.30
2019-05-19T03:28:31.678Z,9.30
2019-05-19T03:31:22.623Z,9.30
2019-05-19T03:33:51.499Z,9.30
2019-05-19T03:36:20.426Z,9.30
2019-05-19T03:38:49.238Z,9.30
2019-05-19T03:41:18.114Z,9.40
2019-05-19T03:43:46.899Z,9.30
2019-05-19T03:46:15.703Z,9.40
2019-05-19T03:48:44.611Z,9.40
2019-05-19T03:51:29.190Z,9.40
2019-05-19T03:53:45.230Z,9.40
2019-05-19T03:56:14.083Z,9.50
2019-05-19T03:58:42.838Z,9.50
2019-05-19T04:01:11.666Z,9.50
2019-05-19T04:03:40.443Z,9.60
2019-05-19T04:06:09.307Z,9.60
2019-05-19T04:08:38.085Z,9.70
2019-05-19T04:11:06.950Z,9.80
2019-05-19T04:13:35.728Z,9.80
2019-05-19T04:16:04.664Z,9.90
2019-05-19T04:18:33.438Z,9.90
2019-05-19T04:21:02.317Z,9.90
2019-05-19T04:23:31.123Z,10.00
2019-05-19T04:26:00.054Z,10.00
2019-05-19T04:28:28.850Z,10.10
2019-05-19T04:30:57.644Z,10.20
2019-05-19T04:33:26.751Z,10.30
2019-05-19T04:35:57.634Z,10.40
2019-05-19T04:38:26.102Z,10.40
2019-05-19T04:40:54.895Z,10.50
2019-05-19T04:43:23.730Z,10.50
2019-05-19T04:45:52.536Z,10.60
2019-05-19T04:48:21.292Z,10.60
2019-05-19T04:50:50.134Z,10.80
2019-05-19T04:53:18.925Z,10.90
2019-05-19T04:55:47.679Z,11.00
2019-05-19T04:58:16.532Z,11.20
2019-05-19T05:00:45.367Z,11.30
2019-05-19T05:03:14.154Z,11.50
2019-05-19T05:05:43.009Z,11.60
2019-05-19T05:08:28.008Z,11.80
2019-05-19T05:10:42.414Z,11.90
2019-05-19T05:13:11.290Z,12.10
2019-05-19T05:15:40.051Z,12.30
2019-05-19T05:18:09.049Z,12.40
2019-05-19T05:20:37.829Z,12.50
2019-05-19T05:23:06.657Z,12.70
2019-05-19T05:25:35.658Z,12.80
2019-05-19T05:28:04.542Z,12.90
2019-05-19T05:30:33.689Z,13.10
2019-05-19T05:33:02.480Z,13.10
2019-05-19T05:35:31.314Z,13.30
2019-05-19T05:38:00.101Z,13.40
2019-05-19T05:40:28.857Z,13.60
2019-05-19T05:42:57.642Z,13.80
2019-05-19T05:45:26.573Z,14.00
2019-05-19T05:47:55.434Z,14.20
2019-05-19T05:50:24.191Z,14.50
2019-05-19T05:52:53.133Z,14.60
2019-05-19T05:55:21.993Z,14.80
2019-05-19T05:57:50.844Z,14.80
2019-05-19T06:00:19.949Z,14.90
2019-05-19T06:02:48.981Z,14.90
2019-05-19T06:05:17.811Z,14.90
2019-05-19T06:07:46.657Z,14.90
2019-05-19T06:10:15.679Z,14.90
2019-05-19T06:12:44.470Z,15.00
2019-05-19T06:15:13.399Z,15.00
2019-05-19T06:17:42.205Z,15.00
2019-05-19T06:20:11.180Z,15.00
2019-05-19T06:22:55.238Z,14.90
2019-05-19T06:25:10.942Z,14.90
2019-05-19T06:27:39.705Z,14.80
2019-05-19T06:30:09.526Z,14.80
2019-05-19T06:32:45.505Z,14.80
2019-05-19T06:35:14.845Z,15.00
2019-05-19T06:37:43.605Z,15.20
2019-05-19T06:40:12.678Z,15.50
2019-05-19T06:42:41.446Z,16.00
2019-05-19T06:45:11.325Z,16.40
2019-05-19T06:47:40.349Z,17.10
2019-05-19T06:50:09.767Z,17.50
2019-05-19T06:52:38.953Z,17.70
2019-05-19T06:55:08.453Z,17.60
2019-05-19T06:57:38.782Z,17.40
2019-05-19T07:00:07.762Z,17.20
2019-05-19T07:02:36.598Z,17.00
2019-05-19T07:05:06.321Z,16.80
2019-05-19T07:07:35.245Z,16.70
2019-05-19T07:10:04.511Z,16.60
2019-05-19T07:12:33.322Z,16.60
2019-05-19T07:15:02.114Z,16.70
2019-05-19T07:17:31.005Z,16.70
2019-05-19T07:19:59.789Z,16.80
2019-05-19T07:22:28.561Z,16.90
2019-05-19T07:24:57.339Z,16.90
2019-05-19T07:27:26.106Z,17.00
2019-05-19T07:29:54.948Z,17.10
2019-05-19T07:32:23.713Z,17.20
2019-05-19T07:34:52.490Z,17.30
2019-05-19T07:37:21.249Z,17.50
2019-05-19T07:39:50.080Z,17.90
2019-05-19T07:42:19.206Z,18.50
2019-05-19T07:44:48.301Z,19.40
2019-05-19T07:47:17.079Z,20.20
2019-05-19T07:49:45.951Z,20.90
2019-05-19T07:52:14.712Z,23.30
2019-05-19T07:54:43.558Z,25.80
2019-05-19T07:57:12.332Z,28.10
2019-05-19T07:59:41.106Z,30.40
2019-05-19T08:02:09.954Z,31.50
2019-05-19T08:04:38.779Z,31.90
2019-05-19T08:07:07.554Z,32.40
2019-05-19T08:09:36.317Z,33.40
2019-05-19T08:12:05.197Z,32.90
2019-05-19T08:14:34.036Z,32.90
2019-05-19T08:17:03.094Z,34.40
2019-05-19T08:19:31.911Z,35.00
2019-05-19T08:22:00.746Z,36.30
2019-05-19T08:24:29.837Z,36.30
2019-05-19T08:26:58.643Z,37.70
2019-05-19T08:29:27.422Z,38.90
2019-05-19T08:31:56.279Z,40.10
2019-05-19T08:34:25.046Z,40.50
2019-05-19T08:36:53.829Z,40.60
2019-05-19T08:39:22.594Z,41.00
2019-05-19T08:41:51.377Z,41.30
2019-05-19T08:44:20.148Z,41.20
2019-05-19T08:46:48.934Z,39.20
2019-05-19T08:49:17.803Z,36.60
2019-05-19T08:51:46.585Z,35.70
2019-05-19T08:54:18.841Z,36.90
2019-05-19T08:56:45.929Z,37.30
2019-05-19T08:59:14.694Z,37.80
2019-05-19T09:01:43.469Z,38.50
2019-05-19T09:04:12.237Z,39.00
2019-05-19T09:06:41.110Z,40.20
2019-05-19T09:09:09.985Z,42.00
2019-05-19T09:11:38.777Z,42.80
2019-05-19T09:14:07.902Z,43.60
2019-05-19T09:16:36.758Z,44.20
2019-05-19T09:19:05.541Z,43.50
2019-05-19T09:21:34.466Z,41.60
2019-05-19T09:24:03.258Z,41.70
2019-05-19T09:26:32.040Z,43.50
2019-05-19T09:29:00.917Z,44.60
2019-05-19T09:31:30.318Z,46.10
2019-05-19T09:33:59.102Z,47.00
2019-05-19T09:36:27.886Z,47.90
2019-05-19T09:38:56.666Z,46.90
2019-05-19T09:41:25.473Z,46.30
2019-05-19T09:43:54.265Z,44.40
2019-05-19T09:46:23.153Z,40.30
2019-05-19T09:49:11.035Z,37.40
2019-05-19T09:51:39.880Z,34.90
2019-05-19T09:54:08.684Z,33.50
2019-05-19T09:56:37.493Z,32.80
2019-05-19T09:59:06.365Z,33.20
2019-05-19T10:01:35.449Z,32.70
2019-05-19T10:04:06.991Z,31.80
2019-05-19T10:06:34.901Z,30.80
2019-05-19T10:09:06.407Z,29.90
2019-05-19T10:12:02.794Z,29.50
2019-05-19T10:14:32.057Z,29.20
2019-05-19T10:17:01.275Z,29.10
2019-05-19T10:19:30.482Z,28.80
2019-05-19T10:21:59.507Z,28.50
2019-05-19T10:24:28.335Z,28.20
2019-05-19T10:26:57.170Z,27.90
2019-05-19T10:29:25.948Z,27.60
2019-05-19T10:31:55.062Z,27.50
2019-05-19T10:34:23.909Z,27.50
2019-05-19T10:36:52.920Z,27.60
2019-05-19T10:39:21.789Z,27.90
2019-05-19T10:41:50.629Z,28.10
2019-05-19T10:44:19.477Z,28.40
2019-05-19T10:46:48.255Z,28.60
2019-05-19T10:49:17.109Z,29.20
2019-05-19T10:51:45.956Z,30.10
2019-05-19T10:54:14.732Z,31.30
2019-05-19T10:56:43.870Z,32.20
2019-05-19T10:59:12.642Z,33.20
2019-05-19T11:01:41.526Z,34.20
2019-05-19T11:04:10.406Z,35.70
2019-05-19T11:06:39.179Z,35.40
2019-05-19T11:09:08.286Z,35.00
2019-05-19T11:11:37.161Z,34.30
2019-05-19T11:14:06.748Z,32.60
2019-05-19T11:16:35.661Z,31.50
2019-05-19T11:19:04.588Z,32.00
2019-05-19T11:21:33.366Z,32.40
2019-05-19T11:24:02.142Z,31.00
2019-05-19T11:26:30.913Z,30.10
2019-05-19T11:28:59.721Z,29.50
2019-05-19T11:31:28.666Z,29.20
2019-05-19T11:33:57.523Z,28.80
2019-05-19T11:36:26.311Z,28.40
2019-05-19T11:38:55.359Z,27.80
2019-05-19T11:41:24.119Z,27.50
2019-05-19T11:43:52.894Z,28.00
2019-05-19T11:46:21.737Z,28.80
2019-05-19T11:48:50.581Z,29.90
2019-05-19T11:51:19.368Z,31.40
2019-05-19T11:53:48.135Z,32.10
2019-05-19T11:56:16.957Z,31.60
2019-05-19T11:58:45.790Z,30.80
2019-05-19T12:01:14.794Z,30.90
2019-05-19T12:03:43.541Z,31.70
2019-05-19T12:06:12.833Z,33.50
2019-05-19T12:08:42.122Z,32.00
2019-05-19T12:11:10.898Z,29.50
2019-05-19T12:13:39.813Z,28.00
2019-05-19T12:16:08.669Z,26.60
2019-05-19T12:18:38.088Z,25.60
2019-05-19T12:21:07.088Z,24.60
2019-05-19T12:23:35.869Z,23.40
2019-05-19T12:26:04.822Z,22.50
2019-05-19T12:28:33.589Z,21.70
2019-05-19T12:31:02.474Z,21.10
2019-05-19T12:33:31.241Z,20.90
2019-05-19T12:36:00.060Z,20.60
2019-05-19T12:38:28.897Z,20.20
2019-05-19T12:40:57.799Z,19.90
2019-05-19T12:43:26.845Z,19.60
2019-05-19T12:45:55.715Z,19.40
2019-05-19T12:48:24.631Z,19.20
2019-05-19T12:50:53.418Z,19.00
2019-05-19T12:53:22.254Z,19.00
2019-05-19T12:55:51.389Z,18.90
2019-05-19T12:58:20.268Z,18.80
2019-05-19T13:00:49.041Z,18.70
2019-05-19T13:03:17.993Z,18.60
2019-05-19T13:05:47.085Z,18.40
2019-05-19T13:08:15.944Z,18.30
2019-05-19T13:10:44.802Z,18.00
2019-05-19T13:13:13.643Z,17.80
2019-05-19T13:15:42.501Z,17.70
2019-05-19T13:18:11.269Z,17.60
2019-05-19T13:20:40.180Z,17.40
2019-05-19T13:23:09.105Z,17.00
2019-05-19T13:25:38.307Z,16.90
2019-05-19T13:28:07.205Z,16.70
2019-05-19T13:30:36.007Z,16.80
2019-05-19T13:33:05.192Z,16.80
2019-05-19T13:35:34.064Z,16.80
2019-05-19T13:38:03.085Z,16.90
2019-05-19T13:40:31.922Z,16.90
2019-05-19T13:43:00.882Z,16.90
2019-05-19T13:45:29.648Z,16.90
2019-05-19T13:47:58.438Z,16.90
2019-05-19T13:50:27.286Z,16.80
2019-05-19T13:52:56.042Z,17.00
2019-05-19T13:55:24.978Z,17.20
2019-05-19T13:57:54.149Z,17.30
2019-05-19T14:00:23.177Z,17.30
2019-05-19T14:02:52.189Z,17.40
2019-05-19T14:05:20.961Z,17.40
2019-05-19T14:07:49.855Z,17.50
2019-05-19T14:10:18.923Z,17.60
2019-05-19T14:12:47.738Z,17.70
2019-05-19T14:15:16.608Z,17.70
2019-05-19T14:17:45.482Z,17.90
2019-05-19T14:20:14.450Z,18.00
2019-05-19T14:22:43.206Z,18.10
2019-05-19T14:25:12.422Z,18.20
2019-05-19T14:27:41.280Z,18.30
2019-05-19T14:30:10.786Z,18.30
2019-05-19T14:32:39.591Z,18.40
2019-05-19T14:35:08.613Z,18.50
2019-05-19T14:37:37.525Z,18.60
2019-05-19T14:40:07.265Z,18.70
2019-05-19T14:42:46.685Z,18.80
2019-05-19T14:45:16.199Z,18.90
2019-05-19T14:47:45.151Z,18.90
2019-05-19T14:50:14.060Z,18.80
2019-05-19T14:52:43.136Z,18.80
2019-05-19T14:55:12.045Z,18.70
2019-05-19T14:57:45.050Z,18.60
2019-05-19T15:00:12.690Z,18.50
2019-05-19T15:02:41.486Z,18.50
2019-05-19T15:05:11.123Z,18.40
2019-05-19T15:07:39.993Z,18.20
2019-05-19T15:10:09.105Z,18.10
2019-05-19T15:12:37.901Z,17.90
2019-05-19T15:15:06.978Z,17.70
2019-05-19T15:17:35.769Z,17.50
2019-05-19T15:20:04.994Z,17.40
2019-05-19T15:22:33.971Z,17.20
2019-05-19T15:25:03.132Z,17.10
2019-05-19T15:27:31.906Z,16.90
2019-05-19T15:30:12.410Z,16.90
2019-05-19T15:32:31.349Z,17.00
2019-05-19T15:35:00.141Z,17.00
2019-05-19T15:37:28.921Z,17.10
2019-05-19T15:39:57.712Z,17.20
2019-05-19T15:42:26.465Z,17.30
2019-05-19T15:44:55.507Z,17.40
2019-05-19T15:47:24.297Z,17.60
2019-05-19T15:49:53.091Z,18.00
2019-05-19T15:52:21.869Z,18.10
2019-05-19T15:54:50.799Z,18.30
2019-05-19T15:57:19.962Z,18.50
2019-05-19T15:59:49.179Z,18.70
2019-05-19T16:02:18.008Z,18.90
2019-05-19T16:04:46.862Z,19.00
2019-05-19T16:07:15.790Z,19.00
2019-05-19T16:09:44.636Z,19.10
2019-05-19T16:12:13.806Z,19.20
2019-05-19T16:14:42.574Z,19.30
2019-05-19T16:17:11.405Z,19.30
2019-05-19T16:19:40.186Z,19.30
2019-05-19T16:22:09.023Z,19.30
2019-05-19T16:24:38.169Z,19.20
2019-05-19T16:27:06.940Z,19.30
2019-05-19T16:29:36.061Z,19.30
2019-05-19T16:32:04.913Z,19.40
2019-05-19T16:34:33.692Z,19.50
2019-05-19T16:37:02.463Z,19.50
2019-05-19T16:39:31.238Z,19.40
2019-05-19T16:42:00.003Z,19.40
2019-05-19T16:44:29.310Z,19.30
2019-05-19T16:46:58.087Z,19.30
2019-05-19T16:49:26.989Z,19.20
2019-05-19T16:51:55.806Z,19.10
2019-05-19T16:54:29.228Z,19.00
2019-05-19T16:56:58.342Z,18.90
2019-05-19T16:59:27.193Z,18.80
2019-05-19T17:01:55.967Z,18.80
2019-05-19T17:04:24.904Z,18.80
2019-05-19T17:06:53.677Z,18.80
2019-05-19T17:09:22.481Z,18.80
2019-05-19T17:11:51.349Z,18.70
2019-05-19T17:14:20.193Z,18.60
2019-05-19T17:16:49.067Z,18.50
2019-05-19T17:19:17.834Z,18.40
2019-05-19T17:21:46.645Z,18.40
2019-05-19T17:24:15.418Z,18.30
2019-05-19T17:26:44.211Z,18.30
2019-05-19T17:29:12.994Z,18.20
2019-05-19T17:31:41.799Z,18.30
2019-05-19T17:34:10.585Z,18.40
2019-05-19T17:36:39.386Z,18.40
2019-05-19T17:39:08.321Z,18.40
2019-05-19T17:41:43.182Z,18.40
2019-05-19T17:44:11.943Z,18.30
2019-05-19T17:46:40.862Z,18.30
2019-05-19T17:49:09.641Z,18.30
2019-05-19T17:51:38.453Z,18.30
2019-05-19T17:54:07.423Z,18.30
2019-05-19T17:56:37.151Z,18.30
2019-05-19T17:59:16.123Z,18.20
2019-05-19T18:01:36.829Z,18.20
2019-05-19T18:04:05.773Z,18.10
2019-05-19T18:06:34.662Z,18.00
2019-05-19T18:09:04.548Z,18.00
2019-05-19T18:11:33.390Z,17.90
2019-05-19T18:14:02.207Z,17.90
2019-05-19T18:16:31.029Z,17.90
2019-05-19T18:18:59.881Z,17.90
2019-05-19T18:21:28.733Z,17.80
2019-05-19T18:23:57.506Z,17.80
2019-05-19T18:26:26.841Z,17.70
2019-05-19T18:28:55.674Z,17.60
2019-05-19T18:31:24.457Z,17.40
2019-05-19T18:33:53.229Z,17.30
2019-05-19T18:36:22.113Z,17.00
2019-05-19T18:38:51.106Z,16.80
2019-05-19T18:41:19.959Z,16.60
2019-05-19T18:43:48.735Z,16.40
2019-05-19T18:46:17.505Z,16.10
2019-05-19T18:48:46.426Z,15.80
2019-05-19T18:51:15.428Z,15.60
2019-05-19T18:53:44.454Z,15.30
2019-05-19T18:56:13.253Z,15.10
2019-05-19T18:58:42.422Z,14.90
2019-05-19T19:01:11.339Z,14.60
2019-05-19T19:03:40.190Z,14.50
2019-05-19T19:06:09.294Z,14.30
2019-05-19T19:08:38.109Z,14.00
2019-05-19T19:11:07.239Z,13.90
2019-05-19T19:13:36.013Z,13.70
2019-05-19T19:16:04.782Z,13.50
2019-05-19T19:18:33.557Z,13.40
2019-05-19T19:21:02.413Z,13.20
2019-05-19T19:23:31.285Z,13.00
2019-05-19T19:26:00.054Z,12.90
2019-05-19T19:28:28.838Z,12.80
2019-05-19T19:30:57.609Z,12.70
2019-05-19T19:33:26.410Z,12.60
2019-05-19T19:35:55.337Z,12.50
2019-05-19T19:38:24.113Z,12.40
2019-05-19T19:40:54.309Z,12.40
2019-05-19T19:43:23.413Z,12.40
2019-05-19T19:45:52.216Z,12.40
2019-05-19T19:48:21.028Z,12.40
2019-05-19T19:50:49.797Z,12.40
2019-05-19T19:53:18.569Z,12.30
2019-05-19T19:55:47.339Z,12.30
2019-05-19T19:58:16.303Z,12.30
2019-05-19T20:00:45.721Z,12.20
2019-05-19T20:03:16.616Z,12.10
2019-05-19T20:05:45.626Z,12.10
2019-05-19T20:08:14.593Z,12.00
2019-05-19T20:10:43.485Z,11.90
2019-05-19T20:13:12.334Z,11.90
2019-05-19T20:15:41.121Z,11.70
2019-05-19T20:18:09.898Z,11.70
2019-05-19T20:20:38.754Z,11.60
2019-05-19T20:23:07.739Z,11.60
2019-05-19T20:25:37.311Z,11.50
2019-05-19T20:28:06.720Z,11.40
2019-05-19T20:30:36.757Z,11.30
2019-05-19T20:33:05.892Z,11.30
2019-05-19T20:35:34.761Z,11.20
2019-05-19T20:38:03.669Z,11.20
2019-05-19T20:40:32.519Z,11.20
2019-05-19T20:43:01.942Z,11.10
2019-05-19T20:45:30.749Z,11.00
2019-05-19T20:47:59.531Z,10.90
2019-05-19T20:50:28.452Z,10.80
2019-05-19T20:52:57.318Z,10.70
2019-05-19T20:55:26.198Z,10.60
2019-05-19T20:57:55.053Z,10.60
2019-05-19T21:00:24.193Z,10.50
2019-05-19T21:02:52.965Z,10.50
2019-05-19T21:05:22.002Z,10.40
2019-05-19T21:07:50.761Z,10.30
2019-05-19T21:10:19.685Z,10.20
2019-05-19T21:12:48.520Z,10.10
2019-05-19T21:15:18.132Z,10.00
2019-05-19T21:17:46.894Z,10.00
2019-05-19T21:20:15.750Z,9.90
2019-05-19T21:22:44.514Z,9.90
2019-05-19T21:25:13.441Z,9.80
2019-05-19T21:27:42.546Z,9.70
2019-05-19T21:30:11.557Z,9.70
2019-05-19T21:32:40.310Z,9.60
2019-05-19T21:35:09.559Z,9.60
2019-05-19T21:37:38.305Z,9.50
2019-05-19T21:40:08.197Z,9.50
2019-05-19T21:42:37.021Z,9.40
2019-05-19T21:45:06.537Z,9.40
2019-05-19T21:47:35.354Z,9.30
2019-05-19T21:50:05.740Z,9.30
2019-05-19T21:52:34.573Z,9.30
2019-05-19T21:55:03.537Z,9.30
2019-05-19T21:57:32.605Z,9.30
2019-05-19T22:00:01.431Z,9.30
2019-05-19T22:02:30.285Z,9.20
2019-05-19T22:05:01.527Z,9.20
2019-05-19T22:07:40.121Z,9.20
2019-05-19T22:10:09.041Z,9.20
2019-05-19T22:12:37.828Z,9.10
2019-05-19T22:15:07.062Z,9.10
2019-05-19T22:17:35.833Z,9.10
2019-05-19T22:20:04.765Z,9.10
2019-05-19T22:22:33.545Z,9.00
2019-05-19T22:25:02.438Z,8.90
2019-05-19T22:27:31.281Z,8.90
2019-05-19T22:30:00.037Z,8.90
2019-05-19T22:32:28.823Z,8.80
2019-05-19T22:34:57.650Z,8.70
2019-05-19T22:37:26.433Z,8.70
2019-05-19T22:39:55.821Z,8.70
2019-05-19T22:42:27.694Z,8.70
2019-05-19T22:44:56.698Z,8.70
2019-05-19T22:47:25.547Z,8.70
2019-05-19T22:49:54.317Z,8.70
2019-05-19T22:52:23.097Z,8.60
2019-05-19T22:54:52.013Z,8.60
2019-05-19T22:57:20.825Z,8.60
2019-05-19T22:59:49.798Z,8.50
2019-05-19T23:02:18.575Z,8.50
2019-05-19T23:04:47.369Z,8.50
2019-05-19T23:07:16.141Z,8.50
2019-05-19T23:09:44.897Z,8.40
2019-05-19T23:12:13.669Z,8.30
2019-05-19T23:14:42.504Z,8.30
2019-05-19T23:17:11.284Z,8.30
2019-05-19T23:19:40.286Z,8.20
2019-05-19T23:22:09.061Z,8.20
2019-05-19T23:24:38.224Z,8.10
2019-05-19T23:27:07.069Z,8.10
2019-05-19T23:29:35.897Z,8.10
2019-05-19T23:32:07.204Z,8.10
2019-05-19T23:34:35.218Z,8.00
2019-05-19T23:37:04.041Z,7.90
2019-05-19T23:39:32.933Z,7.90
2019-05-19T23:42:01.721Z,7.90
2019-05-19T23:44:30.877Z,7.80
2019-05-19T23:46:59.678Z,7.80
2019-05-19T23:49:29.571Z,7.80
2019-05-19T23:51:58.333Z,7.70
2019-05-19T23:54:27.450Z,7.70
2019-05-19T23:56:56.287Z,7.70
2019-05-19T23:59:25.057Z,7.70
